createdAt,value
2023-03-01T00:00:07.451Z,0.00
2023-03-01T00:01:07.427Z,0.00
2023-03-01T00:02:07.463Z,0.00
2023-03-01T00:03:07.434Z,0.00
2023-03-01T00:04:07.418Z,0.00
2023-03-01T00:05:07.390Z,0.00
2023-03-01T00:06:07.385Z,0.00
2023-03-01T00:07:07.376Z,0.00
2023-03-01T00:08:07.378Z,0.00
2023-03-01T00:09:07.370Z,0.00
2023-03-01T00:10:07.343Z,0.00
2023-03-01T00:11:07.371Z,0.00
2023-03-01T00:12:07.320Z,0.00
2023-03-01T00:13:07.312Z,0.00
2023-03-01T00:14:07.318Z,0.00
2023-03-01T00:15:07.297Z,0.00
2023-03-01T00:16:07.291Z,0.00
2023-03-01T00:17:07.332Z,0.00
2023-03-01T00:18:07.264Z,0.00
2023-03-01T00:19:07.272Z,0.00
2023-03-01T00:20:07.235Z,0.00
2023-03-01T00:21:07.226Z,0.00
2023-03-01T00:22:07.221Z,0.00
2023-03-01T00:23:07.216Z,0.00
2023-03-01T00:24:07.222Z,0.00
2023-03-01T00:25:07.188Z,0.00
2023-03-01T00:26:07.197Z,0.00
2023-03-01T00:27:07.168Z,0.00
2023-03-01T00:28:07.164Z,0.00
2023-03-01T00:29:07.186Z,0.00
2023-03-01T00:30:07.158Z,0.00
2023-03-01T00:31:07.147Z,0.00
2023-03-01T00:32:07.152Z,0.00
2023-03-01T00:33:07.128Z,0.00
2023-03-01T00:34:07.147Z,0.00
2023-03-01T00:35:07.121Z,0.00
2023-03-01T00:36:07.111Z,0.00
2023-03-01T00:37:07.090Z,0.00
2023-03-01T00:38:07.066Z,0.00
2023-03-01T00:39:07.068Z,0.00
2023-03-01T00:40:07.056Z,0.00
2023-03-01T00:41:07.085Z,0.00
2023-03-01T00:42:07.031Z,0.00
2023-03-01T00:43:07.042Z,0.00
2023-03-01T00:44:07.019Z,0.00
2023-03-01T00:45:06.995Z,0.00
2023-03-01T00:46:07.053Z,0.00
2023-03-01T00:47:06.987Z,0.00
2023-03-01T00:48:06.972Z,0.00
2023-03-01T00:49:07.013Z,0.00
2023-03-01T00:50:06.963Z,0.00
2023-03-01T00:51:06.939Z,0.00
2023-03-01T00:52:06.937Z,0.00
2023-03-01T00:53:06.931Z,0.00
2023-03-01T00:54:06.930Z,0.00
2023-03-01T00:55:06.883Z,0.00
2023-03-01T00:56:06.862Z,0.00
2023-03-01T00:57:06.886Z,0.00
2023-03-01T00:58:06.876Z,0.00
2023-03-01T00:59:06.896Z,0.00
2023-03-01T01:00:06.828Z,0.00
2023-03-01T01:01:06.886Z,0.00
2023-03-01T01:02:06.805Z,0.00
2023-03-01T01:03:06.812Z,0.00
2023-03-01T01:04:06.826Z,0.00
2023-03-01T01:05:06.779Z,0.00
2023-03-01T01:06:06.809Z,0.00
2023-03-01T01:07:06.760Z,0.00
2023-03-01T01:08:06.809Z,0.00
2023-03-01T01:09:06.762Z,0.00
2023-03-01T01:10:06.723Z,0.00
2023-03-01T01:11:06.719Z,0.00
2023-03-01T01:12:06.704Z,0.00
2023-03-01T01:13:06.702Z,0.00
2023-03-01T01:14:06.715Z,0.00
2023-03-01T01:15:06.677Z,0.00
2023-03-01T01:16:06.719Z,0.00
2023-03-01T01:17:06.662Z,0.00
2023-03-01T01:18:06.652Z,0.00
2023-03-01T01:19:06.656Z,0.00
2023-03-01T01:20:06.631Z,0.00
2023-03-01T01:21:06.628Z,0.00
2023-03-01T01:22:06.606Z,0.00
2023-03-01T01:23:06.608Z,0.00
2023-03-01T01:24:06.607Z,0.00
2023-03-01T01:25:06.582Z,0.00
2023-03-01T01:26:06.573Z,0.00
2023-03-01T01:27:06.570Z,0.00
2023-03-01T01:28:06.549Z,0.00
2023-03-01T01:29:06.561Z,0.00
2023-03-01T01:30:06.538Z,0.00
2023-03-01T01:31:06.557Z,0.00
2023-03-01T01:32:06.557Z,0.00
2023-03-01T01:33:06.511Z,0.00
2023-03-01T01:34:06.515Z,0.00
2023-03-01T01:35:06.486Z,0.00
2023-03-01T01:36:06.472Z,0.00
2023-03-01T01:37:06.462Z,0.00
2023-03-01T01:38:06.453Z,0.00
2023-03-01T01:39:12.961Z,0.00
2023-03-01T01:40:06.437Z,0.00
2023-03-01T01:41:06.434Z,0.00
2023-03-01T01:42:06.414Z,0.00
2023-03-01T01:43:06.408Z,0.00
2023-03-01T01:44:06.404Z,0.00
2023-03-01T01:45:06.395Z,0.00
2023-03-01T01:46:06.487Z,0.00
2023-03-01T01:47:06.374Z,0.00
2023-03-01T01:48:06.359Z,0.00
2023-03-01T01:49:06.386Z,0.00
2023-03-01T01:50:06.336Z,0.00
2023-03-01T01:51:06.332Z,0.00
2023-03-01T01:52:06.325Z,0.00
2023-03-01T01:53:06.307Z,0.00
2023-03-01T01:54:06.316Z,0.00
2023-03-01T01:55:06.292Z,0.00
2023-03-01T01:56:06.280Z,0.00
2023-03-01T01:57:06.269Z,0.00
2023-03-01T01:58:06.254Z,0.00
2023-03-01T01:59:06.264Z,0.00
2023-03-01T02:00:06.267Z,0.00
2023-03-01T02:01:06.236Z,0.00
2023-03-01T02:02:06.254Z,0.00
2023-03-01T02:03:06.370Z,0.00
2023-03-01T02:04:06.205Z,0.00
2023-03-01T02:05:06.227Z,0.00
2023-03-01T02:06:06.186Z,0.00
2023-03-01T02:07:06.167Z,0.00
2023-03-01T02:08:06.163Z,0.00
2023-03-01T02:09:06.177Z,0.00
2023-03-01T02:10:06.156Z,0.00
2023-03-01T02:11:06.147Z,0.00
2023-03-01T02:12:06.135Z,0.00
2023-03-01T02:13:06.115Z,0.00
2023-03-01T02:14:06.139Z,0.00
2023-03-01T02:15:06.122Z,0.00
2023-03-01T02:16:06.121Z,0.00
2023-03-01T02:17:06.090Z,0.00
2023-03-01T02:18:06.079Z,0.00
2023-03-01T02:19:06.106Z,0.00
2023-03-01T02:20:06.040Z,0.00
2023-03-01T02:21:06.040Z,0.00
2023-03-01T02:22:06.035Z,0.00
2023-03-01T02:23:06.018Z,0.00
2023-03-01T02:24:06.017Z,0.00
2023-03-01T02:25:06.001Z,0.00
2023-03-01T02:26:06.027Z,0.00
2023-03-01T02:27:05.987Z,0.00
2023-03-01T02:28:05.973Z,0.00
2023-03-01T02:29:05.990Z,0.00
2023-03-01T02:30:05.978Z,0.00
2023-03-01T02:31:06.029Z,0.00
2023-03-01T02:32:06.049Z,0.00
2023-03-01T02:33:05.932Z,0.00
2023-03-01T02:34:05.919Z,0.00
2023-03-01T02:35:05.908Z,0.00
2023-03-01T02:36:05.887Z,0.00
2023-03-01T02:37:05.881Z,0.00
2023-03-01T02:38:05.867Z,0.00
2023-03-01T02:39:05.876Z,0.00
2023-03-01T02:40:05.850Z,0.00
2023-03-01T02:41:05.843Z,0.00
2023-03-01T02:42:05.864Z,0.00
2023-03-01T02:43:05.843Z,0.00
2023-03-01T02:44:05.829Z,0.00
2023-03-01T02:45:05.800Z,0.00
2023-03-01T02:46:05.789Z,0.00
2023-03-01T02:47:05.780Z,0.00
2023-03-01T02:48:05.774Z,0.00
2023-03-01T02:49:05.799Z,0.00
2023-03-01T02:50:05.769Z,0.00
2023-03-01T02:51:05.748Z,0.00
2023-03-01T02:52:05.724Z,0.00
2023-03-01T02:53:05.723Z,0.00
2023-03-01T02:54:05.727Z,0.00
2023-03-01T02:55:05.704Z,0.00
2023-03-01T02:56:05.698Z,0.00
2023-03-01T02:57:05.693Z,0.00
2023-03-01T02:58:05.671Z,0.00
2023-03-01T02:59:05.678Z,0.00
2023-03-01T03:00:05.706Z,0.00
2023-03-01T03:01:05.705Z,0.00
2023-03-01T03:02:05.645Z,0.00
2023-03-01T03:03:05.629Z,0.00
2023-03-01T03:04:05.674Z,0.00
2023-03-01T03:05:05.626Z,0.00
2023-03-01T03:06:05.606Z,0.00
2023-03-01T03:07:05.600Z,0.00
2023-03-01T03:08:05.593Z,0.00
2023-03-01T03:09:05.599Z,0.00
2023-03-01T03:10:05.559Z,0.00
2023-03-01T03:11:05.550Z,0.00
2023-03-01T03:12:05.544Z,0.00
2023-03-01T03:13:05.536Z,0.00
2023-03-01T03:14:05.532Z,0.00
2023-03-01T03:15:05.525Z,0.00
2023-03-01T03:16:05.523Z,0.00
2023-03-01T03:17:05.483Z,0.00
2023-03-01T03:18:05.476Z,0.00
2023-03-01T03:19:05.491Z,0.00
2023-03-01T03:20:05.457Z,0.00
2023-03-01T03:21:05.479Z,0.00
2023-03-01T03:22:05.495Z,0.00
2023-03-01T03:23:05.441Z,0.00
2023-03-01T03:24:05.438Z,0.00
2023-03-01T03:25:05.451Z,0.00
2023-03-01T03:26:05.404Z,0.00
2023-03-01T03:27:05.434Z,0.00
2023-03-01T03:28:05.408Z,0.00
2023-03-01T03:29:05.468Z,0.00
2023-03-01T03:30:05.350Z,0.00
2023-03-01T03:31:05.355Z,0.00
2023-03-01T03:32:05.408Z,0.00
2023-03-01T03:33:05.325Z,0.00
2023-03-01T03:34:05.328Z,0.00
2023-03-01T03:35:05.319Z,0.00
2023-03-01T03:36:05.344Z,0.00
2023-03-01T03:37:05.293Z,0.00
2023-03-01T03:38:05.314Z,0.00
2023-03-01T03:39:05.289Z,0.00
2023-03-01T03:40:05.264Z,0.00
2023-03-01T03:41:05.263Z,0.00
2023-03-01T03:42:05.233Z,0.00
2023-03-01T03:43:05.229Z,0.00
2023-03-01T03:44:05.234Z,0.00
2023-03-01T03:45:05.210Z,0.00
2023-03-01T03:46:05.236Z,0.00
2023-03-01T03:47:05.194Z,0.00
2023-03-01T03:48:05.180Z,0.00
2023-03-01T03:49:05.192Z,0.00
2023-03-01T03:50:05.163Z,0.00
2023-03-01T03:51:05.150Z,0.00
2023-03-01T03:52:05.142Z,0.00
2023-03-01T03:53:05.140Z,0.00
2023-03-01T03:54:05.132Z,0.00
2023-03-01T03:55:05.124Z,0.00
2023-03-01T03:56:06.603Z,0.00
2023-03-01T03:57:05.093Z,0.00
2023-03-01T03:58:05.075Z,0.00
2023-03-01T03:59:05.093Z,0.00
2023-03-01T04:00:05.071Z,0.00
2023-03-01T04:01:05.078Z,0.00
2023-03-01T04:02:05.061Z,0.00
2023-03-01T04:03:05.036Z,0.00
2023-03-01T04:04:05.195Z,0.00
2023-03-01T04:05:05.016Z,0.00
2023-03-01T04:06:05.002Z,0.00
2023-03-01T04:07:05.002Z,0.00
2023-03-01T04:08:04.993Z,0.00
2023-03-01T04:09:04.987Z,0.00
2023-03-01T04:10:04.978Z,0.00
2023-03-01T04:11:04.965Z,0.00
2023-03-01T04:12:04.949Z,0.00
2023-03-01T04:13:04.946Z,0.00
2023-03-01T04:14:04.943Z,0.00
2023-03-01T04:15:04.921Z,0.00
2023-03-01T04:16:04.990Z,0.00
2023-03-01T04:17:04.901Z,0.00
2023-03-01T04:18:04.896Z,0.00
2023-03-01T04:19:04.885Z,0.00
2023-03-01T04:20:04.913Z,0.00
2023-03-01T04:21:04.869Z,0.00
2023-03-01T04:22:04.902Z,0.00
2023-03-01T04:23:04.864Z,0.00
2023-03-01T04:24:04.899Z,0.00
2023-03-01T04:25:04.817Z,0.00
2023-03-01T04:26:04.852Z,0.00
2023-03-01T04:27:04.795Z,0.00
2023-03-01T04:28:04.819Z,0.00
2023-03-01T04:29:04.790Z,0.00
2023-03-01T04:30:04.844Z,0.00
2023-03-01T04:31:04.764Z,0.00
2023-03-01T04:32:04.819Z,0.00
2023-03-01T04:33:04.752Z,0.00
2023-03-01T04:34:04.766Z,0.00
2023-03-01T04:35:04.719Z,0.00
2023-03-01T04:36:04.763Z,0.00
2023-03-01T04:37:04.700Z,0.00
2023-03-01T04:38:04.694Z,0.00
2023-03-01T04:39:04.699Z,0.00
2023-03-01T04:40:04.685Z,0.00
2023-03-01T04:41:04.684Z,0.00
2023-03-01T04:42:04.666Z,0.00
2023-03-01T04:43:04.642Z,0.00
2023-03-01T04:44:04.640Z,0.00
2023-03-01T04:45:04.625Z,0.00
2023-03-01T04:46:04.706Z,0.00
2023-03-01T04:47:04.607Z,0.00
2023-03-01T04:48:04.604Z,0.00
2023-03-01T04:49:04.592Z,0.00
2023-03-01T04:50:04.576Z,0.00
2023-03-01T04:51:04.559Z,0.00
2023-03-01T04:52:04.564Z,0.00
2023-03-01T04:53:04.556Z,0.00
2023-03-01T04:54:04.561Z,0.00
2023-03-01T04:55:04.548Z,0.00
2023-03-01T04:56:04.538Z,0.00
2023-03-01T04:57:04.498Z,0.00
2023-03-01T04:58:04.494Z,0.00
2023-03-01T04:59:04.497Z,0.00
2023-03-01T05:00:04.471Z,0.00
2023-03-01T05:01:04.458Z,0.00
2023-03-01T05:02:04.456Z,0.00
2023-03-01T05:03:04.475Z,0.00
2023-03-01T05:04:04.488Z,0.00
2023-03-01T05:05:04.436Z,0.00
2023-03-01T05:06:04.432Z,0.00
2023-03-01T05:07:04.412Z,0.00
2023-03-01T05:08:04.393Z,0.00
2023-03-01T05:09:04.400Z,0.00
2023-03-01T05:10:04.385Z,0.00
2023-03-01T05:11:04.374Z,0.00
2023-03-01T05:12:04.439Z,0.00
2023-03-01T05:13:04.350Z,0.00
2023-03-01T05:14:04.348Z,0.00
2023-03-01T05:15:04.397Z,0.00
2023-03-01T05:16:04.343Z,0.00
2023-03-01T05:17:04.311Z,0.00
2023-03-01T05:18:04.307Z,0.00
2023-03-01T05:19:04.312Z,0.00
2023-03-01T05:20:04.304Z,0.00
2023-03-01T05:21:04.282Z,0.00
2023-03-01T05:22:04.280Z,0.00
2023-03-01T05:23:04.245Z,0.00
2023-03-01T05:24:04.260Z,0.00
2023-03-01T05:25:04.240Z,0.00
2023-03-01T05:26:04.244Z,0.00
2023-03-01T05:27:04.237Z,0.00
2023-03-01T05:28:04.200Z,0.00
2023-03-01T05:29:04.214Z,0.00
2023-03-01T05:30:04.178Z,0.00
2023-03-01T05:31:04.281Z,0.00
2023-03-01T05:32:04.227Z,0.00
2023-03-01T05:33:04.216Z,0.00
2023-03-01T05:34:04.158Z,0.00
2023-03-01T05:35:04.139Z,0.00
2023-03-01T05:36:04.135Z,0.00
2023-03-01T05:37:04.107Z,0.00
2023-03-01T05:38:04.115Z,0.00
2023-03-01T05:39:04.099Z,0.00
2023-03-01T05:40:04.025Z,1.00
2023-03-01T05:41:04.032Z,1.00
2023-03-01T05:42:04.007Z,1.00
2023-03-01T05:43:03.999Z,1.00
2023-03-01T05:44:04.003Z,2.00
2023-03-01T05:45:03.994Z,2.00
2023-03-01T05:46:04.072Z,1.00
2023-03-01T05:47:03.975Z,1.00
2023-03-01T05:48:03.954Z,2.00
2023-03-01T05:49:04.022Z,4.00
2023-03-01T05:50:03.982Z,3.00
2023-03-01T05:51:04.051Z,2.00
2023-03-01T05:52:03.986Z,3.00
2023-03-01T05:53:03.892Z,3.00
2023-03-01T05:54:03.996Z,6.00
2023-03-01T05:55:03.892Z,5.00
2023-03-01T05:56:03.898Z,6.00
2023-03-01T05:57:03.879Z,8.00
2023-03-01T05:58:03.876Z,7.00
2023-03-01T05:59:03.850Z,10.00
2023-03-01T06:00:03.862Z,13.00
2023-03-01T06:01:03.862Z,10.00
2023-03-01T06:02:03.815Z,14.00
2023-03-01T06:03:03.835Z,22.00
2023-03-01T06:04:03.814Z,23.00
2023-03-01T06:05:03.932Z,23.00
2023-03-01T06:06:03.812Z,28.00
2023-03-01T06:07:03.769Z,32.00
2023-03-01T06:08:03.759Z,36.00
2023-03-01T06:09:03.766Z,37.00
2023-03-01T06:10:03.753Z,41.00
2023-03-01T06:11:03.720Z,48.00
2023-03-01T06:12:03.716Z,51.00
2023-03-01T06:13:03.704Z,58.00
2023-03-01T06:14:03.723Z,62.00
2023-03-01T06:15:03.683Z,67.00
2023-03-01T06:16:03.696Z,69.00
2023-03-01T06:17:03.664Z,75.00
2023-03-01T06:18:03.658Z,80.00
2023-03-01T06:19:03.670Z,86.00
2023-03-01T06:20:03.639Z,94.00
2023-03-01T06:21:03.656Z,101.00
2023-03-01T06:22:03.648Z,106.00
2023-03-01T06:23:03.651Z,122.00
2023-03-01T06:24:03.614Z,126.00
2023-03-01T06:25:03.595Z,127.00
2023-03-01T06:26:03.577Z,125.00
2023-03-01T06:27:03.565Z,130.00
2023-03-01T06:28:03.569Z,152.00
2023-03-01T06:29:03.567Z,158.00
2023-03-01T06:30:03.543Z,163.00
2023-03-01T06:31:03.562Z,175.00
2023-03-01T06:32:03.561Z,201.00
2023-03-01T06:33:03.530Z,222.00
2023-03-01T06:34:03.543Z,238.00
2023-03-01T06:35:03.489Z,244.00
2023-03-01T06:36:03.516Z,278.00
2023-03-01T06:37:03.474Z,301.00
2023-03-01T06:38:03.481Z,314.00
2023-03-01T06:39:03.467Z,322.00
2023-03-01T06:40:03.453Z,372.00
2023-03-01T06:41:03.427Z,381.00
2023-03-01T06:42:03.431Z,408.00
2023-03-01T06:43:03.421Z,424.00
2023-03-01T06:44:03.427Z,505.00
2023-03-01T06:45:03.405Z,545.00
2023-03-01T06:46:03.396Z,627.00
2023-03-01T06:47:03.372Z,668.00
2023-03-01T06:48:03.378Z,700.00
2023-03-01T06:49:03.365Z,658.00
2023-03-01T06:50:03.346Z,673.00
2023-03-01T06:51:03.333Z,717.00
2023-03-01T06:52:03.322Z,802.00
2023-03-01T06:53:03.316Z,828.00
2023-03-01T06:54:03.327Z,909.00
2023-03-01T06:55:03.291Z,929.00
2023-03-01T06:56:03.284Z,801.00
2023-03-01T06:57:03.266Z,819.00
2023-03-01T06:58:03.280Z,874.00
2023-03-01T06:59:03.258Z,1043.00
2023-03-01T07:00:03.237Z,1270.00
2023-03-01T07:01:05.448Z,1391.00
2023-03-01T07:02:03.225Z,1764.00
2023-03-01T07:03:03.327Z,1771.00
2023-03-01T07:04:03.215Z,1565.00
2023-03-01T07:05:03.186Z,1498.00
2023-03-01T07:06:03.187Z,1625.00
2023-03-01T07:07:03.170Z,1839.00
2023-03-01T07:08:03.168Z,2042.00
2023-03-01T07:09:03.160Z,2179.00
2023-03-01T07:10:03.164Z,2215.00
2023-03-01T07:11:03.132Z,2183.00
2023-03-01T07:12:03.134Z,2267.00
2023-03-01T07:13:03.115Z,2267.00
2023-03-01T07:14:03.122Z,2262.00
2023-03-01T07:15:03.087Z,2255.00
2023-03-01T07:16:03.113Z,2255.00
2023-03-01T07:17:03.077Z,2276.00
2023-03-01T07:18:03.065Z,2289.00
2023-03-01T07:19:03.070Z,2288.00
2023-03-01T07:20:03.078Z,2319.00
2023-03-01T07:21:03.031Z,2370.00
2023-03-01T07:22:03.021Z,2409.00
2023-03-01T07:23:03.039Z,2458.00
2023-03-01T07:24:03.013Z,2490.00
2023-03-01T07:25:03.003Z,2508.00
2023-03-01T07:26:02.997Z,2496.00
2023-03-01T07:27:02.968Z,2487.00
2023-03-01T07:28:02.974Z,2516.00
2023-03-01T07:29:02.968Z,2521.00
2023-03-01T07:30:02.946Z,2541.00
2023-03-01T07:31:02.933Z,2566.00
2023-03-01T07:32:03.030Z,2592.00
2023-03-01T07:33:03.068Z,2625.00
2023-03-01T07:34:02.918Z,2619.00
2023-03-01T07:35:02.924Z,2642.00
2023-03-01T07:36:02.949Z,2640.00
2023-03-01T07:37:02.878Z,2648.00
2023-03-01T07:38:02.886Z,2668.00
2023-03-01T07:39:02.858Z,2693.00
2023-03-01T07:40:02.855Z,2699.00
2023-03-01T07:41:02.845Z,2745.00
2023-03-01T07:42:02.831Z,2744.00
2023-03-01T07:43:02.813Z,2763.00
2023-03-01T07:44:02.817Z,2768.00
2023-03-01T07:45:02.792Z,2789.00
2023-03-01T07:46:02.864Z,2797.00
2023-03-01T07:47:02.788Z,2834.00
2023-03-01T07:48:02.762Z,2855.00
2023-03-01T07:49:02.838Z,2839.00
2023-03-01T07:50:02.743Z,2866.00
2023-03-01T07:51:02.735Z,2875.00
2023-03-01T07:52:02.734Z,2878.00
2023-03-01T07:53:02.714Z,2896.00
2023-03-01T07:54:02.734Z,2921.00
2023-03-01T07:55:02.700Z,2949.00
2023-03-01T07:56:02.696Z,2965.00
2023-03-01T07:57:02.671Z,2967.00
2023-03-01T07:58:02.662Z,2971.00
2023-03-01T07:59:02.670Z,2971.00
2023-03-01T08:00:02.654Z,2992.00
2023-03-01T08:01:02.656Z,2999.00
2023-03-01T08:02:02.681Z,3012.00
2023-03-01T08:03:02.617Z,3046.00
2023-03-01T08:04:02.623Z,3029.00
2023-03-01T08:05:02.598Z,3037.00
2023-03-01T08:06:02.589Z,3030.00
2023-03-01T08:07:02.566Z,3058.00
2023-03-01T08:08:02.569Z,2980.00
2023-03-01T08:09:02.586Z,3233.00
2023-03-01T08:10:02.541Z,3072.00
2023-03-01T08:11:02.528Z,3115.00
2023-03-01T08:12:02.597Z,3053.00
2023-03-01T08:13:02.503Z,3102.00
2023-03-01T08:14:02.517Z,3165.00
2023-03-01T08:15:02.509Z,3142.00
2023-03-01T08:16:02.521Z,3165.00
2023-03-01T08:17:02.476Z,3167.00
2023-03-01T08:18:02.455Z,3131.00
2023-03-01T08:19:02.470Z,3159.00
2023-03-01T08:20:02.442Z,3175.00
2023-03-01T08:21:02.434Z,3210.00
2023-03-01T08:22:02.417Z,3226.00
2023-03-01T08:23:02.406Z,3346.00
2023-03-01T08:24:02.410Z,3258.00
2023-03-01T08:25:02.388Z,3396.00
2023-03-01T08:26:02.374Z,3473.00
2023-03-01T08:27:02.368Z,3440.00
2023-03-01T08:28:02.394Z,3399.00
2023-03-01T08:29:02.379Z,3577.00
2023-03-01T08:30:02.346Z,3493.00
2023-03-01T08:31:02.326Z,3468.00
2023-03-01T08:32:02.461Z,3488.00
2023-03-01T08:33:02.401Z,3463.00
2023-03-01T08:34:02.304Z,3577.00
2023-03-01T08:35:02.294Z,3523.00
2023-03-01T08:36:02.359Z,3487.00
2023-03-01T08:37:02.270Z,3631.00
2023-03-01T08:38:02.296Z,3582.00
2023-03-01T08:39:02.291Z,3629.00
2023-03-01T08:40:02.243Z,3507.00
2023-03-01T08:41:02.244Z,3493.00
2023-03-01T08:42:02.215Z,3450.00
2023-03-01T08:43:02.215Z,3784.00
2023-03-01T08:44:02.209Z,3703.00
2023-03-01T08:45:02.191Z,3661.00
2023-03-01T08:46:02.321Z,3594.00
2023-03-01T08:47:02.174Z,3552.00
2023-03-01T08:48:02.157Z,3701.00
2023-03-01T08:49:02.162Z,3695.00
2023-03-01T08:50:02.164Z,3642.00
2023-03-01T08:51:02.135Z,3606.00
2023-03-01T08:52:02.116Z,3559.00
2023-03-01T08:53:02.110Z,3634.00
2023-03-01T08:54:02.115Z,3690.00
2023-03-01T08:55:02.090Z,3722.00
2023-03-01T08:56:02.078Z,3788.00
2023-03-01T08:57:02.082Z,3738.00
2023-03-01T08:58:02.061Z,3677.00
2023-03-01T08:59:02.069Z,3699.00
2023-03-01T09:00:02.067Z,3646.00
2023-03-01T09:01:02.052Z,3648.00
2023-03-01T09:02:02.072Z,3869.00
2023-03-01T09:03:02.092Z,4067.00
2023-03-01T09:04:02.044Z,3738.00
2023-03-01T09:05:02.009Z,3727.00
2023-03-01T09:06:01.977Z,3786.00
2023-03-01T09:07:01.977Z,3618.00
2023-03-01T09:08:02.068Z,3559.00
2023-03-01T09:09:01.952Z,4029.00
2023-03-01T09:10:01.946Z,4113.00
2023-03-01T09:11:01.952Z,3917.00
2023-03-01T09:12:01.915Z,3665.00
2023-03-01T09:13:02.651Z,4123.00
2023-03-01T09:14:01.896Z,4063.00
2023-03-01T09:15:02.027Z,4046.00
2023-03-01T09:16:01.880Z,3915.00
2023-03-01T09:17:01.955Z,4099.00
2023-03-01T09:18:01.870Z,3984.00
2023-03-01T09:19:01.852Z,4023.00
2023-03-01T09:20:01.869Z,3975.00
2023-03-01T09:21:01.849Z,4036.00
2023-03-01T09:22:01.832Z,3941.00
2023-03-01T09:23:01.810Z,3717.00
2023-03-01T09:24:01.800Z,3865.00
2023-03-01T09:25:01.806Z,4114.00
2023-03-01T09:26:01.775Z,2347.00
2023-03-01T09:27:01.772Z,3705.00
2023-03-01T09:28:01.761Z,4053.00
2023-03-01T09:29:01.748Z,4038.00
2023-03-01T09:30:01.768Z,3930.00
2023-03-01T09:31:01.744Z,3641.00
2023-03-01T09:32:01.785Z,3715.00
2023-03-01T09:33:01.708Z,3978.00
2023-03-01T09:34:01.722Z,3844.00
2023-03-01T09:35:01.769Z,3976.00
2023-03-01T09:36:01.717Z,3741.00
2023-03-01T09:37:01.681Z,3846.00
2023-03-01T09:38:01.673Z,3792.00
2023-03-01T09:39:01.665Z,3975.00
2023-03-01T09:40:01.677Z,3782.00
2023-03-01T09:41:01.629Z,3986.00
2023-03-01T09:42:01.629Z,3920.00
2023-03-01T09:43:01.614Z,3339.00
2023-03-01T09:44:01.609Z,3789.00
2023-03-01T09:45:01.607Z,3964.00
2023-03-01T09:46:01.612Z,3854.00
2023-03-01T09:47:01.577Z,3869.00
2023-03-01T09:48:01.578Z,3599.00
2023-03-01T09:49:01.570Z,4233.00
2023-03-01T09:50:01.558Z,3928.00
2023-03-01T09:51:01.527Z,3799.00
2023-03-01T09:52:01.511Z,3659.00
2023-03-01T09:53:01.526Z,3945.00
2023-03-01T09:54:01.504Z,3633.00
2023-03-01T09:55:01.502Z,3861.00
2023-03-01T09:56:01.479Z,3843.00
2023-03-01T09:57:01.465Z,3818.00
2023-03-01T09:58:01.455Z,3751.00
2023-03-01T09:59:01.450Z,4048.00
2023-03-01T10:00:01.459Z,3872.00
2023-03-01T10:01:01.425Z,3726.00
2023-03-01T10:02:01.441Z,3985.00
2023-03-01T10:03:01.407Z,4110.00
2023-03-01T10:04:01.445Z,3976.00
2023-03-01T10:05:01.470Z,4075.00
2023-03-01T10:06:01.401Z,4026.00
2023-03-01T10:07:01.366Z,4037.00
2023-03-01T10:08:01.367Z,4017.00
2023-03-01T10:09:01.344Z,3938.00
2023-03-01T10:10:01.354Z,3851.00
2023-03-01T10:11:01.331Z,3875.00
2023-03-01T10:12:01.344Z,3935.00
2023-03-01T10:13:01.329Z,3839.00
2023-03-01T10:14:01.295Z,3721.00
2023-03-01T10:15:01.301Z,3798.00
2023-03-01T10:16:01.394Z,3712.00
2023-03-01T10:17:01.266Z,3543.00
2023-03-01T10:18:01.253Z,4679.00
2023-03-01T10:19:01.250Z,3921.00
2023-03-01T10:20:01.251Z,3744.00
2023-03-01T10:21:01.223Z,3777.00
2023-03-01T10:22:01.213Z,3635.00
2023-03-01T10:23:01.216Z,4259.00
2023-03-01T10:24:01.190Z,3629.00
2023-03-01T10:25:01.227Z,3792.00
2023-03-01T10:26:01.171Z,3397.00
2023-03-01T10:27:01.161Z,4399.00
2023-03-01T10:28:01.150Z,3076.00
2023-03-01T10:29:01.140Z,3825.00
2023-03-01T10:30:01.143Z,3680.00
2023-03-01T10:31:01.267Z,3627.00
2023-03-01T10:32:01.157Z,3696.00
2023-03-01T10:33:03.002Z,3701.00
2023-03-01T10:34:01.100Z,3595.00
2023-03-01T10:35:01.217Z,3741.00
2023-03-01T10:36:01.203Z,3603.00
2023-03-01T10:37:01.065Z,3620.00
2023-03-01T10:38:01.048Z,3691.00
2023-03-01T10:39:01.041Z,3631.00
2023-03-01T10:40:01.040Z,3665.00
2023-03-01T10:41:01.022Z,3655.00
2023-03-01T10:42:01.082Z,3644.00
2023-03-01T10:43:01.022Z,3676.00
2023-03-01T10:44:01.024Z,3688.00
2023-03-01T10:45:01.018Z,3652.00
2023-03-01T10:46:01.036Z,3600.00
2023-03-01T10:47:00.981Z,3662.00
2023-03-01T10:48:00.952Z,3758.00
2023-03-01T10:49:00.952Z,3339.00
2023-03-01T10:50:00.956Z,3649.00
2023-03-01T10:51:00.927Z,3658.00
2023-03-01T10:52:00.962Z,3622.00
2023-03-01T10:53:00.914Z,3641.00
2023-03-01T10:54:00.891Z,3627.00
2023-03-01T10:55:00.905Z,3697.00
2023-03-01T10:56:00.898Z,3522.00
2023-03-01T10:57:00.868Z,3670.00
2023-03-01T10:58:00.856Z,3552.00
2023-03-01T10:59:00.858Z,3673.00
2023-03-01T11:00:00.844Z,3506.00
2023-03-01T11:01:00.857Z,3606.00
2023-03-01T11:02:02.308Z,3598.00
2023-03-01T11:03:00.805Z,3558.00
2023-03-01T11:04:00.783Z,3625.00
2023-03-01T11:05:00.882Z,3779.00
2023-03-01T11:06:00.766Z,3740.00
2023-03-01T11:07:00.769Z,3263.00
2023-03-01T11:08:00.746Z,3593.00
2023-03-01T11:09:00.739Z,3603.00
2023-03-01T11:10:00.738Z,3600.00
2023-03-01T11:11:00.720Z,3563.00
2023-03-01T11:12:00.713Z,3592.00
2023-03-01T11:13:00.735Z,3537.00
2023-03-01T11:14:00.691Z,3515.00
2023-03-01T11:15:00.742Z,3353.00
2023-03-01T11:16:00.695Z,3677.00
2023-03-01T11:17:00.677Z,3560.00
2023-03-01T11:18:09.288Z,3545.00
2023-03-01T11:19:00.656Z,3537.00
2023-03-01T11:20:02.892Z,3494.00
2023-03-01T11:21:00.617Z,3529.00
2023-03-01T11:22:00.693Z,3550.00
2023-03-01T11:23:00.603Z,3532.00
2023-03-01T11:24:00.585Z,3539.00
2023-03-01T11:25:09.899Z,3532.00
2023-03-01T11:26:00.576Z,3579.00
2023-03-01T11:27:00.572Z,3585.00
2023-03-01T11:28:00.546Z,3464.00
2023-03-01T11:29:00.542Z,3475.00
2023-03-01T11:30:00.536Z,3304.00
2023-03-01T11:31:08.304Z,3461.00
2023-03-01T11:32:00.694Z,3511.00
2023-03-01T11:33:00.702Z,3478.00
2023-03-01T11:34:00.514Z,3419.00
2023-03-01T11:35:00.504Z,3488.00
2023-03-01T11:36:00.488Z,3445.00
2023-03-01T11:37:00.463Z,3377.00
2023-03-01T11:38:00.447Z,3457.00
2023-03-01T11:39:00.493Z,3604.00
2023-03-01T11:40:00.457Z,3404.00
2023-03-01T11:41:00.430Z,3259.00
2023-03-01T11:42:09.311Z,3500.00
2023-03-01T11:43:00.435Z,3381.00
2023-03-01T11:44:00.405Z,3392.00
2023-03-01T11:45:00.395Z,3375.00
2023-03-01T11:46:00.371Z,3383.00
2023-03-01T11:47:00.487Z,3373.00
2023-03-01T11:48:00.340Z,3420.00
2023-03-01T11:49:00.360Z,3280.00
2023-03-01T11:50:00.347Z,3671.00
2023-03-01T11:51:00.346Z,3410.00
2023-03-01T11:52:00.334Z,3450.00
2023-03-01T11:53:00.299Z,3089.00
2023-03-01T11:54:00.282Z,3375.00
2023-03-01T11:55:00.296Z,3399.00
2023-03-01T11:56:00.302Z,3296.00
2023-03-01T11:57:00.298Z,3220.00
2023-03-01T11:58:00.256Z,3162.00
2023-03-01T11:59:00.238Z,3283.00
2023-03-01T12:00:00.233Z,3196.00
2023-03-01T12:01:00.218Z,3296.00
2023-03-01T12:02:00.302Z,3045.00
2023-03-01T12:03:00.203Z,3662.00
2023-03-01T12:04:00.269Z,3228.00
2023-03-01T12:05:00.197Z,3260.00
2023-03-01T12:06:00.196Z,3243.00
2023-03-01T12:07:00.171Z,3216.00
2023-03-01T12:08:00.161Z,3263.00
2023-03-01T12:09:00.191Z,3225.00
2023-03-01T12:10:00.157Z,3330.00
2023-03-01T12:11:00.124Z,2543.00
2023-03-01T12:12:00.111Z,3820.00
2023-03-01T12:13:00.131Z,4141.00
2023-03-01T12:14:00.110Z,4212.00
2023-03-01T12:15:00.137Z,3279.00
2023-03-01T12:16:00.258Z,3180.00
2023-03-01T12:17:00.360Z,3206.00
2023-03-01T12:18:00.053Z,3217.00
2023-03-01T12:19:00.035Z,3204.00
2023-03-01T12:20:00.058Z,3180.00
2023-03-01T12:21:00.025Z,3212.00
2023-03-01T12:22:00.016Z,3226.00
2023-03-01T12:23:08.467Z,3129.00
2023-03-01T12:23:59.993Z,3197.00
2023-03-01T12:24:59.994Z,3226.00
2023-03-01T12:25:59.978Z,3167.00
2023-03-01T12:26:59.982Z,3216.00
2023-03-01T12:27:59.947Z,3198.00
2023-03-01T12:28:59.941Z,3166.00
2023-03-01T12:29:59.959Z,3192.00
2023-03-01T12:30:59.929Z,3244.00
2023-03-01T12:31:59.998Z,3192.00
2023-03-01T12:32:59.958Z,3190.00
2023-03-01T12:33:59.898Z,3133.00
2023-03-01T12:34:59.899Z,3193.00
2023-03-01T12:35:59.935Z,3180.00
2023-03-01T12:36:59.881Z,3224.00
2023-03-01T12:37:59.863Z,3223.00
2023-03-01T12:38:59.855Z,3205.00
2023-03-01T12:39:59.861Z,3164.00